Time;durP1;ratioP1;P1;durP2;ratioP2;P2;SDS_P1;SDS_P2;PMS_P1;PMS_P2;Temp;Humidity;BMP_temperature;BMP_pressure;BME280_temperature;BME280_humidity;BME280_pressure;Samples;Min_cycle;Max_cycle;Signal;HPM_P1;HPM_P2
2022/08/30 00:03:00;;;;;;;17.05;9.82;;;;;;;14.70;95.64;101934.09;5112812;28;20126;-44
2022/08/30 00:05:29;;;;;;;15.05;9.13;;;;;;;14.68;96.01;101938.38;5112604;28;20107;-44
2022/08/30 00:07:56;;;;;;;14.88;8.80;;;;;;;14.65;96.24;101933.97;5113364;28;20035;-43
2022/08/30 00:10:22;;;;;;;16.95;8.80;;;;;;;14.63;96.54;101927.81;5112568;28;20043;-43
2022/08/30 00:12:47;;;;;;;18.40;9.82;;;;;;;14.61;96.73;101924.28;5113422;28;20047;-43
2022/08/30 00:15:13;;;;;;;11.95;8.30;;;;;;;14.59;97.13;101925.06;5113447;28;20420;-45
2022/08/30 00:17:41;;;;;;;14.43;9.23;;;;;;;14.57;97.46;101929.34;5112401;28;20462;-43
2022/08/30 00:20:10;;;;;;;11.93;8.25;;;;;;;14.52;97.51;101929.19;5113204;28;20463;-44
2022/08/30 00:22:36;;;;;;;16.27;8.93;;;;;;;14.51;97.70;101927.41;5112911;28;20016;-43
2022/08/30 00:25:02;;;;;;;13.60;7.78;;;;;;;14.42;97.72;101925.44;5112343;28;20399;-45
2022/08/30 00:27:29;;;;;;;16.38;8.55;;;;;;;14.34;98.01;101926.91;5113404;28;20042;-44
2022/08/30 00:29:55;;;;;;;20.07;9.10;;;;;;;14.32;98.24;101921.66;5113033;28;20078;-44
2022/08/30 00:32:21;;;;;;;12.25;8.13;;;;;;;14.36;98.76;101929.53;5112632;28;20315;-46
2022/08/30 00:34:47;;;;;;;13.82;8.60;;;;;;;14.27;99.27;101924.97;5113034;28;20036;-45
2022/08/30 00:37:13;;;;;;;14.13;9.18;;;;;;;14.25;99.60;101930.06;5112764;28;20028;-43
2022/08/30 00:39:39;;;;;;;13.57;8.73;;;;;;;14.24;99.75;101924.84;5112082;28;20048;-46
2022/08/30 00:42:05;;;;;;;17.35;9.18;;;;;;;14.20;99.79;101930.78;5113184;28;20044;-43
2022/08/30 00:44:30;;;;;;;13.25;8.57;;;;;;;14.23;100.00;101933.44;5112675;28;20038;-46
2022/08/30 00:46:56;;;;;;;14.32;8.35;;;;;;;14.22;100.00;101931.72;5112327;28;20016;-47
2022/08/30 00:49:22;;;;;;;13.48;9.05;;;;;;;14.21;100.00;101929.94;5113001;28;20026;-44
2022/08/30 00:51:47;;;;;;;15.63;8.38;;;;;;;14.14;100.00;101924.56;5112008;28;20085;-46
2022/08/30 00:54:13;;;;;;;15.77;8.65;;;;;;;14.10;100.00;101927.00;5112987;28;20098;-46
2022/08/30 00:56:38;;;;;;;14.50;8.32;;;;;;;14.05;100.00;101929.47;5112970;28;20073;-44
2022/08/30 00:59:06;;;;;;;14.40;8.85;;;;;;;14.04;100.00;101932.88;5112120;28;20047;-43
2022/08/30 01:01:32;;;;;;;18.73;8.02;;;;;;;14.04;100.00;101934.59;5112753;28;20031;-46
2022/08/30 01:03:59;;;;;;;15.52;8.77;;;;;;;14.00;100.00;101937.06;5112856;28;20049;-44
2022/08/30 01:06:24;;;;;;;13.77;8.52;;;;;;;14.02;100.00;101944.91;5112053;28;20086;-43
2022/08/30 01:08:50;;;;;;;13.18;8.25;;;;;;;14.08;100.00;101934.72;5112433;28;20494;-43
2022/08/30 01:11:20;;;;;;;14.90;8.40;;;;;;;14.08;100.00;101937.31;5112979;28;20509;-47
2022/08/30 01:13:47;;;;;;;13.20;7.88;;;;;;;14.08;100.00;101945.09;5111968;28;20111;-43
2022/08/30 01:16:13;;;;;;;10.90;8.37;;;;;;;14.13;100.00;101940.94;5113517;28;20028;-43
2022/08/30 01:18:39;;;;;;;11.40;7.72;;;;;;;14.22;100.00;101942.97;5116376;28;20080;-43
2022/08/30 01:21:16;;;;;;;13.25;8.40;;;;;;;14.33;100.00;101943.28;5115629;28;20027;-43
2022/08/30 01:23:44;;;;;;;9.90;8.18;;;;;;;14.37;100.00;101946.88;5116474;28;20027;-43
2022/08/30 01:26:10;;;;;;;11.95;8.45;;;;;;;14.42;100.00;101947.88;5116124;28;20031;-43
2022/08/30 01:28:38;;;;;;;16.77;9.23;;;;;;;14.45;100.00;101946.28;5115625;28;20415;-45
2022/08/30 01:31:03;;;;;;;11.20;7.57;;;;;;;14.44;100.00;101949.69;5116201;28;20030;-47
2022/08/30 01:33:29;;;;;;;9.30;7.97;;;;;;;14.45;100.00;101950.59;5115767;27;20023;-44
2022/08/30 01:36:00;;;;;;;10.73;7.60;;;;;;;14.51;100.00;101949.91;5115504;28;20049;-43
2022/08/30 01:38:29;;;;;;;16.25;8.93;;;;;;;14.48;100.00;101951.56;5116321;27;20032;-43
2022/08/30 01:41:14;;;;;;;10.93;7.93;;;;;;;14.44;100.00;101944.50;5115619;28;20039;-44
2022/08/30 01:43:39;;;;;;;14.90;8.07;;;;;;;14.40;100.00;101937.47;5116058;28;20030;-44
2022/08/30 01:46:05;;;;;;;11.15;8.55;;;;;;;14.33;100.00;101941.59;5115830;28;20027;-45
2022/08/30 01:48:30;;;;;;;12.90;8.65;;;;;;;14.28;100.00;101934.47;5115210;28;20047;-44
2022/08/30 01:50:55;;;;;;;14.05;8.73;;;;;;;14.22;100.00;101936.91;5116011;28;20023;-44
2022/08/30 01:53:21;;;;;;;15.32;8.90;;;;;;;14.16;100.00;101937.56;5115783;28;20070;-47
2022/08/30 01:55:46;;;;;;;15.52;9.60;;;;;;;14.14;100.00;101934.94;5114835;28;20027;-43
2022/08/30 01:58:12;;;;;;;14.13;8.60;;;;;;;14.12;100.00;101934.00;5115664;28;20016;-43
2022/08/30 02:00:38;;;;;;;13.68;8.63;;;;;;;14.10;100.00;101935.66;5115504;28;20356;-43
2022/08/30 02:03:04;;;;;;;13.52;8.70;;;;;;;14.03;100.00;101944.06;5114960;28;20164;-47
2022/08/30 02:05:30;;;;;;;12.88;8.70;;;;;;;14.00;100.00;101941.38;5115316;28;20533;-43
2022/08/30 02:07:55;;;;;;;14.50;9.25;;;;;;;13.93;100.00;101944.59;5115278;28;20100;-43
2022/08/30 02:10:21;;;;;;;13.93;9.75;;;;;;;13.90;100.00;101942.78;5114930;28;20064;-44
2022/08/30 02:12:46;;;;;;;13.07;9.48;;;;;;;13.86;100.00;101937.47;5115307;28;20028;-48
2022/08/30 02:15:12;;;;;;;12.98;9.90;;;;;;;13.82;100.00;101932.16;5115085;28;20056;-43
2022/08/30 02:17:38;;;;;;;11.77;9.90;;;;;;;13.79;100.00;101937.25;5114932;28;20371;-46
2022/08/30 02:20:05;;;;;;;12.57;9.93;;;;;;;13.76;100.00;101936.25;5115293;28;20491;-48
2022/08/30 02:22:31;;;;;;;14.10;10.10;;;;;;;13.75;100.00;101930.19;5115057;28;20069;-46
2022/08/30 02:24:56;;;;;;;17.23;10.80;;;;;;;13.74;100.00;101928.44;5114499;28;20028;-43
2022/08/30 02:27:22;;;;;;;15.45;11.35;;;;;;;13.70;100.00;101925.69;5115044;28;20494;-44
2022/08/30 02:29:47;;;;;;;13.20;11.57;;;;;;;13.69;100.00;101927.41;5114050;28;20031;-43
2022/08/30 02:32:13;;;;;;;15.90;11.68;;;;;;;13.69;100.00;101929.13;5114297;28;20035;-46
2022/08/30 02:34:38;;;;;;;14.85;10.95;;;;;;;13.73;100.00;101926.66;5115167;28;20031;-47
2022/08/30 02:37:04;;;;;;;14.70;11.73;;;;;;;13.70;100.00;101926.56;5114826;28;20032;-43
2022/08/30 02:39:30;;;;;;;15.20;10.93;;;;;;;13.66;100.00;101927.31;5114056;28;20394;-43
2022/08/30 02:41:55;;;;;;;14.98;11.30;;;;;;;13.64;100.00;101928.94;5114742;28;20038;-44
2022/08/30 02:44:20;;;;;;;15.52;11.25;;;;;;;13.61;100.00;101926.28;5113985;28;20023;-43
2022/08/30 02:46:46;;;;;;;16.92;12.50;;;;;;;13.62;100.00;101928.00;5114567;28;20023;-44
2022/08/30 02:49:12;;;;;;;17.60;11.88;;;;;;;13.60;100.00;101927.09;5114929;28;20019;-44
2022/08/30 02:51:38;;;;;;;16.88;12.40;;;;;;;13.56;100.00;101930.41;5113966;28;20151;-43
2022/08/30 02:54:04;;;;;;;19.67;13.35;;;;;;;13.58;100.00;101931.31;5114666;28;20035;-43
2022/08/30 02:56:29;;;;;;;15.52;11.82;;;;;;;13.62;100.00;101926.31;5114507;28;20372;-43
2022/08/30 02:58:55;;;;;;;15.30;12.30;;;;;;;13.61;100.00;101926.28;5113592;28;20042;-45
2022/08/30 03:01:20;;;;;;;15.63;12.25;;;;;;;13.64;100.00;101918.59;5114947;28;20083;-47
2022/08/30 03:03:46;;;;;;;16.50;11.95;;;;;;;13.60;100.00;101908.97;5114311;28;20082;-45
2022/08/30 03:06:12;;;;;;;16.58;12.05;;;;;;;13.56;100.00;101904.50;5113597;28;20024;-44
2022/08/30 03:08:37;;;;;;;14.73;12.02;;;;;;;13.49;100.00;101904.28;5114349;28;20031;-44
2022/08/30 03:11:03;;;;;;;17.08;13.13;;;;;;;13.44;100.00;101902.34;5113972;28;20024;-44
2022/08/30 03:13:29;;;;;;;26.80;13.15;;;;;;;13.34;100.00;101906.31;5113509;28;20490;-43
2022/08/30 03:15:55;;;;;;;16.58;12.93;;;;;;;13.29;100.00;101902.69;5114427;28;20027;-43
2022/08/30 03:18:21;;;;;;;19.02;13.02;;;;;;;13.26;100.00;101902.53;5114145;28;20146;-43
2022/08/30 03:20:47;;;;;;;16.85;13.35;;;;;;;13.22;100.00;101911.03;5113452;28;20382;-46
2022/08/30 03:23:13;;;;;;;18.58;14.30;;;;;;;13.20;100.00;101907.53;5114194;28;20034;-43
2022/08/30 03:25:39;;;;;;;17.92;13.38;;;;;;;13.25;100.00;101911.16;5113524;28;20031;-43
2022/08/30 03:28:05;;;;;;;15.65;14.00;;;;;;;13.21;100.00;101909.28;5113346;28;20020;-43
2022/08/30 03:30:31;;;;;;;16.55;14.00;;;;;;;13.24;100.00;101922.34;5113800;28;20115;-45
2022/08/30 03:32:57;;;;;;;20.15;14.90;;;;;;;13.27;100.00;101912.09;5113839;28;20028;-45
2022/08/30 03:35:22;;;;;;;21.38;14.90;;;;;;;13.30;100.00;101904.44;5113215;28;20526;-45
2022/08/30 03:37:48;;;;;;;22.98;15.63;;;;;;;13.34;100.00;101916.66;5113660;28;20102;-45
2022/08/30 03:40:17;;;;;;;18.60;16.10;;;;;;;13.37;100.00;101911.63;5113326;28;20482;-45
2022/08/30 03:42:43;;;;;;;19.10;15.20;;;;;;;13.42;100.00;101917.84;5112915;28;20024;-48
2022/08/30 03:45:10;;;;;;;21.08;14.68;;;;;;;13.44;100.00;101913.59;5113505;28;20433;-48
2022/08/30 03:47:35;;;;;;;18.73;15.60;;;;;;;13.49;100.00;101904.28;5113113;28;20027;-48
2022/08/30 03:50:01;;;;;;;22.63;15.05;;;;;;;13.53;100.00;101912.16;5113678;28;20081;-44
2022/08/30 03:52:27;;;;;;;18.83;16.45;;;;;;;13.49;100.00;101909.47;5113708;28;20038;-43
2022/08/30 03:54:52;;;;;;;19.13;15.02;;;;;;;13.48;100.00;101907.69;5112711;28;20098;-44
2022/08/30 03:57:17;;;;;;;17.27;15.07;;;;;;;13.49;100.00;101905.97;5113521;28;20028;-44
2022/08/30 03:59:42;;;;;;;20.77;15.00;;;;;;;13.46;100.00;101906.75;5113290;28;20036;-44
2022/08/30 04:02:08;;;;;;;19.33;16.15;;;;;;;13.45;100.00;101905.03;5112541;28;20035;-45
2022/08/30 04:04:33;;;;;;;18.35;15.32;;;;;;;13.41;100.00;101910.88;5113373;28;20493;-43
2022/08/30 04:06:58;;;;;;;17.80;15.02;;;;;;;13.40;100.00;101910.84;5113413;28;20019;-46
2022/08/30 04:09:24;;;;;;;17.88;15.98;;;;;;;13.37;100.00;101909.03;5112710;28;20024;-45
2022/08/30 04:11:49;;;;;;;21.08;15.93;;;;;;;13.38;100.00;101908.22;5113056;28;20020;-43
2022/08/30 04:14:15;;;;;;;18.52;16.63;;;;;;;13.34;100.00;101911.50;5113093;28;20034;-44
2022/08/30 04:16:40;;;;;;;18.00;15.57;;;;;;;13.32;100.00;101913.13;5112796;28;20094;-45
2022/08/30 04:19:05;;;;;;;21.65;16.88;;;;;;;13.34;100.00;101916.66;5113404;28;20024;-45
2022/08/30 04:21:31;;;;;;;18.80;16.08;;;;;;;13.26;100.00;101923.25;5112950;28;20410;-43
2022/08/30 04:23:56;;;;;;;18.98;16.13;;;;;;;13.18;100.00;101912.63;5112579;28;20019;-44
2022/08/30 04:26:22;;;;;;;17.77;15.50;;;;;;;13.15;100.00;101921.16;5113140;28;20028;-43
2022/08/30 04:28:47;;;;;;;18.52;15.57;;;;;;;13.04;100.00;101917.34;5112774;28;20023;-46
2022/08/30 04:31:15;;;;;;;20.75;16.50;;;;;;;13.02;100.00;101918.97;5112588;28;20103;-47
2022/08/30 04:33:40;;;;;;;21.00;16.80;;;;;;;13.05;100.00;101916.47;5113157;28;20015;-43
2022/08/30 04:36:07;;;;;;;19.50;16.50;;;;;;;13.00;100.00;101925.78;5112790;28;20023;-43
2022/08/30 04:38:34;;;;;;;21.50;17.63;;;;;;;13.00;100.00;101936.13;5112502;28;20042;-45
2022/08/30 04:41:00;;;;;;;19.40;17.33;;;;;;;13.02;100.00;101930.19;5112750;28;20516;-44
2022/08/30 04:43:26;;;;;;;21.65;18.48;;;;;;;13.02;100.00;101929.31;5112693;28;20277;-45
2022/08/30 04:45:53;;;;;;;22.58;18.10;;;;;;;13.04;100.00;101932.84;5112436;28;20038;-46
2022/08/30 04:48:19;;;;;;;22.65;19.33;;;;;;;13.03;100.00;101933.69;5112960;28;20467;-48
2022/08/30 04:50:45;;;;;;;23.30;18.95;;;;;;;13.04;100.00;101931.97;5112753;28;20031;-47
2022/08/30 04:53:12;;;;;;;23.23;17.92;;;;;;;13.05;100.00;101934.59;5116130;28;20023;-49
2022/08/30 04:55:39;;;;;;;20.35;18.13;;;;;;;13.02;100.00;101939.66;5116788;28;20027;-45
2022/08/30 04:58:05;;;;;;;20.85;18.40;;;;;;;13.01;100.00;101940.50;5116021;28;20366;-46
2022/08/30 05:00:30;;;;;;;21.88;19.65;;;;;;;13.04;100.00;101943.22;5116801;28;20463;-47
2022/08/30 05:02:55;;;;;;;22.83;19.35;;;;;;;13.04;100.00;101940.63;5116778;28;20030;-48
2022/08/30 05:05:39;;;;;;;25.17;19.55;;;;;;;13.02;100.00;101944.84;5116019;28;20554;-46
2022/08/30 05:08:12;;;;;;;23.23;19.95;;;;;;;13.01;100.00;101938.81;5116640;28;20023;-49
2022/08/30 05:10:40;;;;;;;22.70;20.05;;;;;;;13.01;100.00;101943.97;5116225;28;20421;-47
2022/08/30 05:13:06;;;;;;;21.98;19.33;;;;;;;13.02;100.00;101937.94;5116149;28;20036;-46
2022/08/30 05:15:31;;;;;;;23.08;20.33;;;;;;;13.00;100.00;101934.44;5116540;28;20027;-47
2022/08/30 05:17:57;;;;;;;23.27;20.73;;;;;;;13.00;100.00;101942.22;5116251;28;20064;-47
2022/08/30 05:20:22;;;;;;;22.38;19.50;;;;;;;13.02;100.00;101944.84;5116098;28;20102;-48
2022/08/30 05:22:50;;;;;;;22.98;20.35;;;;;;;13.03;100.00;101946.63;5116427;27;20104;-44
2022/08/30 05:25:19;;;;;;;22.42;19.98;;;;;;;12.97;100.00;101951.56;5116343;28;20027;-48
2022/08/30 05:27:44;;;;;;;22.73;20.23;;;;;;;12.99;100.00;101955.09;5115699;28;20538;-46
2022/08/30 05:30:12;;;;;;;25.25;21.85;;;;;;;13.03;100.00;101962.16;5116360;28;20024;-46
2022/08/30 05:32:37;;;;;;;25.45;22.05;;;;;;;13.12;100.00;101962.47;5115934;28;20027;-46
2022/08/30 05:35:05;;;;;;;24.77;22.05;;;;;;;13.20;100.00;101960.16;5115449;27;20493;-49
2022/08/30 05:37:30;;;;;;;23.30;20.58;;;;;;;13.31;100.00;101963.13;5115949;28;20465;-45
2022/08/30 05:39:56;;;;;;;28.38;21.17;;;;;;;13.40;100.00;101962.63;5115588;28;20075;-48
2022/08/30 05:42:21;;;;;;;23.65;20.42;;;;;;;13.52;100.00;101964.78;5115601;28;20054;-46
2022/08/30 05:44:52;;;;;;;24.60;20.17;;;;;;;13.65;100.00;101974.75;5115862;28;20414;-46
2022/08/30 05:47:18;;;;;;;23.15;20.77;;;;;;;13.74;100.00;101964.72;5115220;28;20102;-45
2022/08/30 05:49:43;;;;;;;23.27;20.65;;;;;;;13.84;100.00;101968.50;5115786;28;20027;-48
2022/08/30 05:52:09;;;;;;;28.52;20.83;;;;;;;13.93;100.00;101965.31;5115645;28;20036;-46
2022/08/30 05:54:34;;;;;;;21.77;19.55;;;;;;;14.02;100.00;101960.47;5114882;28;20039;-46
2022/08/30 05:56:59;;;;;;;22.85;19.13;;;;;;;14.11;100.00;101975.44;5115842;28;20024;-47
2022/08/30 05:59:25;;;;;;;22.25;19.85;;;;;;;14.16;100.00;101964.41;5115632;28;20020;-47
2022/08/30 06:01:50;;;;;;;21.27;19.02;;;;;;;14.21;100.00;101966.25;5114867;28;20023;-46
2022/08/30 06:04:16;;;;;;;24.65;18.63;;;;;;;14.21;100.00;101966.25;5114324;28;20028;-44
2022/08/30 06:06:42;;;;;;;26.23;18.90;;;;;;;14.19;100.00;101962.72;5115141;28;20096;-47
2022/08/30 06:09:09;;;;;;;21.80;19.35;;;;;;;14.16;100.00;101969.56;5115115;28;20034;-47
2022/08/30 06:11:35;;;;;;;22.65;18.52;;;;;;;14.20;100.00;101959.28;5115550;28;20062;-47
2022/08/30 06:14:02;;;;;;;20.70;18.67;;;;;;;14.22;100.00;101953.31;5115169;28;20047;-45
2022/08/30 06:16:28;;;;;;;20.70;18.27;;;;;;;14.21;100.00;101961.06;5114726;27;20035;-48
2022/08/30 06:18:55;;;;;;;20.70;18.38;;;;;;;14.27;100.00;101961.28;5115191;28;20027;-48
2022/08/30 06:21:24;;;;;;;20.45;17.45;;;;;;;14.34;100.00;101965.81;5115275;28;20031;-49
2022/08/30 06:23:50;;;;;;;19.38;17.35;;;;;;;14.43;100.00;101963.50;5114565;28;20123;-44
2022/08/30 06:26:16;;;;;;;19.63;16.85;;;;;;;14.49;100.00;101961.09;5115250;28;20023;-48
2022/08/30 06:28:42;;;;;;;19.00;16.92;;;;;;;14.57;100.00;101961.34;5114877;28;20085;-48
2022/08/30 06:31:09;;;;;;;18.45;16.45;;;;;;;14.65;100.00;101965.09;5114439;28;20463;-46
2022/08/30 06:33:35;;;;;;;18.17;15.63;;;;;;;14.76;100.00;101962.81;5114721;27;20390;-48
2022/08/30 06:36:12;;;;;;;18.00;15.55;;;;;;;14.84;100.00;101969.97;5114912;28;20550;-46
2022/08/30 06:38:39;;;;;;;18.90;16.05;;;;;;;14.91;99.31;101966.72;5114112;28;20390;-45
2022/08/30 06:41:05;;;;;;;19.95;15.07;;;;;;;15.06;98.61;101961.97;5114823;28;20502;-45
2022/08/30 06:43:31;;;;;;;18.30;15.77;;;;;;;15.14;98.91;101960.50;5114117;28;20028;-48
2022/08/30 06:46:02;;;;;;;15.98;14.30;;;;;;;15.23;97.65;101958.97;5114718;28;20023;-44
2022/08/30 06:48:27;;;;;;;18.73;14.95;;;;;;;15.29;97.24;101960.03;5114839;28;20102;-47
2022/08/30 06:50:53;;;;;;;16.80;15.02;;;;;;;15.43;97.18;101957.81;5114027;28;20539;-47
2022/08/30 06:53:19;;;;;;;19.45;14.80;;;;;;;15.49;96.18;101962.28;5114883;28;20039;-48
2022/08/30 06:55:44;;;;;;;15.57;13.90;;;;;;;15.56;95.41;101961.63;5114177;28;20090;-48
2022/08/30 06:58:09;;;;;;;16.52;13.70;;;;;;;15.63;94.64;101952.28;5113922;28;20048;-47
2022/08/30 07:00:35;;;;;;;17.00;13.38;;;;;;;15.70;94.42;101955.91;5114390;28;20069;-48
2022/08/30 07:03:01;;;;;;;18.00;14.25;;;;;;;15.82;94.14;101963.19;5114160;28;20039;-47
2022/08/30 07:05:27;;;;;;;17.45;13.20;;;;;;;15.88;92.28;101952.94;5113607;28;20475;-44
2022/08/30 07:07:53;;;;;;;14.75;12.73;;;;;;;15.97;91.96;101960.97;5114266;28;20028;-47
2022/08/30 07:10:20;;;;;;;12.82;11.50;;;;;;;16.08;90.63;101962.09;5114216;28;20023;-48
2022/08/30 07:12:45;;;;;;;14.77;11.45;;;;;;;16.21;90.68;101965.03;5113611;27;20383;-47
2022/08/30 07:15:11;;;;;;;14.27;11.20;;;;;;;16.33;90.46;101970.50;5113764;28;20036;-46
2022/08/30 07:20:20;;;;;;;12.27;10.30;;;;;;;16.56;87.58;101971.03;5113777;28;20046;-48
2022/08/30 07:22:46;;;;;;;10.75;9.38;;;;;;;16.68;86.66;101969.56;5113926;28;20028;-46
2022/08/30 07:25:12;;;;;;;11.05;9.65;;;;;;;16.78;86.33;101977.63;5113756;28;20051;-47
2022/08/30 07:27:37;;;;;;;12.55;9.60;;;;;;;16.87;85.31;101978.66;5113220;28;20066;-48
2022/08/30 07:30:04;;;;;;;12.05;9.18;;;;;;;16.90;84.56;101990.06;5113810;28;20023;-48
2022/08/30 07:32:30;;;;;;;10.18;8.70;;;;;;;16.97;84.11;101985.00;5113543;28;20494;-49
2022/08/30 07:34:55;;;;;;;10.00;9.00;;;;;;;17.01;84.42;101981.59;5113386;28;20027;-47
2022/08/30 07:37:20;;;;;;;11.18;8.75;;;;;;;17.16;85.11;101979.31;5114071;28;20027;-47
2022/08/30 07:39:46;;;;;;;13.02;8.05;;;;;;;17.26;84.36;101972.56;5112686;28;20070;-49
2022/08/30 07:42:11;;;;;;;13.00;8.48;;;;;;;17.40;82.81;101989.38;5113621;28;20390;-48
2022/08/30 07:44:36;;;;;;;10.35;8.30;;;;;;;17.57;82.06;101988.78;5113241;28;20051;-47
2022/08/30 07:47:02;;;;;;;11.02;7.88;;;;;;;17.67;82.13;101980.28;5112965;28;20353;-47
2022/08/30 07:49:27;;;;;;;10.43;6.97;;;;;;;17.89;80.30;101985.88;5113709;28;20016;-45
2022/08/30 07:51:52;;;;;;;9.68;6.68;;;;;;;17.92;79.04;101983.31;5113201;28;20046;-45
2022/08/30 07:54:18;;;;;;;9.45;6.50;;;;;;;18.02;79.29;101990.50;5113089;28;20024;-48
2022/08/30 07:56:43;;;;;;;9.25;6.88;;;;;;;18.22;78.17;101988.22;5113446;28;20045;-48
2022/08/30 07:59:08;;;;;;;8.07;6.25;;;;;;;18.35;77.69;101986.69;5113212;28;20119;-48
2022/08/30 08:01:34;;;;;;;11.95;6.47;;;;;;;18.48;76.89;101979.06;5113013;28;20031;-48
2022/08/30 08:03:59;;;;;;;9.95;6.35;;;;;;;18.55;75.50;101993.94;5113505;28;20024;-44
2022/08/30 08:06:26;;;;;;;9.80;6.15;;;;;;;18.58;75.41;101988.78;5113089;28;20023;-45
2022/08/30 08:08:52;;;;;;;9.40;5.97;;;;;;;18.68;75.62;101981.94;5112886;28;20034;-47
2022/08/30 08:11:24;;;;;;;10.30;5.90;;;;;;;18.71;74.24;101985.47;5113377;28;20020;-49
2022/08/30 08:13:51;;;;;;;9.23;5.80;;;;;;;18.84;73.84;101988.28;5112911;28;20095;-47
2022/08/30 08:16:17;;;;;;;6.95;5.57;;;;;;;18.94;74.09;101992.78;5112789;28;20466;-45
2022/08/30 08:18:42;;;;;;;7.88;5.72;;;;;;;18.94;73.71;101989.28;5113250;28;20073;-45
2022/08/30 08:21:08;;;;;;;7.68;5.43;;;;;;;19.05;72.78;101991.16;5113078;28;20054;-44
2022/08/30 08:23:33;;;;;;;8.35;5.50;;;;;;;19.09;72.13;101992.09;5112565;28;20028;-48
2022/08/30 08:25:58;;;;;;;8.60;5.43;;;;;;;19.12;71.69;101988.66;5113147;28;20126;-45
2022/08/30 08:28:24;;;;;;;9.85;4.95;;;;;;;19.29;71.77;101994.97;5117441;28;20023;-48
2022/08/30 08:30:50;;;;;;;6.93;4.60;;;;;;;19.40;70.01;101995.06;5116786;28;20447;-48
2022/08/30 08:33:16;;;;;;;6.88;4.72;;;;;;;19.61;69.52;101990.94;5117595;28;20045;-48
2022/08/30 08:35:41;;;;;;;10.43;4.10;;;;;;;19.77;68.27;101997.19;5117049;28;20075;-43
2022/08/30 08:38:07;;;;;;;5.28;4.15;;;;;;;19.92;66.94;101997.38;5116742;28;20076;-46
2022/08/30 08:40:48;;;;;;;7.90;4.07;;;;;;;20.18;67.82;101999.34;5116989;28;20040;-46
2022/08/30 08:43:17;;;;;;;8.82;3.72;;;;;;;20.22;65.21;101996.78;5116780;28;20031;-49
2022/08/30 08:45:55;;;;;;;7.40;4.43;;;;;;;20.27;65.32;101996.81;5117206;28;20027;-46
2022/08/30 08:48:31;;;;;;;;;;;;;;;20.46;68.54;102004.78;5117300;27;20493;-48
2022/08/30 08:53:46;;;;;;;6.68;3.85;;;;;;;20.50;63.36;102003.94;5117216;28;20066;-44
2022/08/30 08:56:15;;;;;;;8.20;3.55;;;;;;;20.61;62.65;102006.66;5116648;28;20142;-47
2022/08/30 08:58:48;;;;;;;6.88;3.28;;;;;;;20.60;63.73;102013.63;5116242;28;20024;-48
2022/08/30 09:01:18;;;;;;;5.80;3.80;;;;;;;20.59;62.71;102011.00;5116780;28;20028;-48
2022/08/30 09:03:44;;;;;;;5.13;3.45;;;;;;;20.59;61.77;102011.84;5116364;28;20020;-49
2022/08/30 09:06:32;;;;;;;6.13;3.65;;;;;;;20.69;62.76;102016.28;5116190;28;20050;-48
2022/08/30 09:08:57;;;;;;;7.80;4.00;;;;;;;20.68;62.03;102014.56;5116544;28;20036;-45
2022/08/30 09:11:27;;;;;;;5.90;3.45;;;;;;;21.09;61.83;102012.19;5116194;28;20012;-45
2022/08/30 09:13:53;;;;;;;7.85;3.67;;;;;;;21.18;60.13;102006.97;5116474;28;20374;-46
2022/08/30 09:16:45;;;;;;;6.90;3.42;;;;;;;21.50;62.55;102008.81;5116174;28;20020;-48
2022/08/30 09:19:11;;;;;;;8.40;3.65;;;;;;;21.80;59.88;102008.03;5115858;28;20368;-48
2022/08/30 09:21:36;;;;;;;10.95;3.60;;;;;;;21.87;58.72;102014.16;5116199;28;20045;-45
2022/08/30 09:24:04;;;;;;;6.57;3.60;;;;;;;22.06;56.67;102011.56;5115961;28;20501;-49
2022/08/30 09:26:33;;;;;;;;;;;;;;;22.28;61.06;102002.78;5115934;28;20483;-48
2022/08/30 09:28:59;;;;;;;8.25;3.42;;;;;;;22.15;56.02;102006.31;5116053;28;20268;-48
2022/08/30 09:31:28;;;;;;;7.40;3.45;;;;;;;22.07;56.22;102002.81;5116194;28;20482;-49
2022/08/30 09:34:05;;;;;;;7.15;3.20;;;;;;;22.03;56.38;102015.06;5115685;28;20068;-48
2022/08/30 09:36:50;;;;;;;6.43;3.05;;;;;;;22.34;57.37;102015.06;5116134;28;20028;-47
2022/08/30 09:39:17;;;;;;;5.95;3.63;;;;;;;22.64;55.40;102008.03;5115113;28;20120;-46
2022/08/30 09:41:47;;;;;;;9.02;3.60;;;;;;;22.77;54.57;102014.13;5116114;27;20065;-45
2022/08/30 09:44:26;;;;;;;9.27;3.83;;;;;;;23.27;54.57;102005.22;5115711;28;20469;-47
2022/08/30 09:46:57;;;;;;;5.93;3.10;;;;;;;23.51;52.51;102005.94;5115448;28;20031;-47
2022/08/30 09:49:35;;;;;;;4.80;2.70;;;;;;;23.81;52.14;102001.38;5115805;28;20119;-49
2022/08/30 09:52:04;;;;;;;5.43;2.63;;;;;;;23.81;51.65;102001.38;5115508;27;20382;-48
2022/08/30 09:54:45;;;;;;;8.80;3.08;;;;;;;24.36;51.02;102000.06;5115337;28;20016;-47
2022/08/30 09:57:17;;;;;;;9.13;2.88;;;;;;;24.53;50.06;102007.81;5115831;28;20068;-48
2022/08/30 09:59:49;;;;;;;5.35;2.55;;;;;;;24.28;49.32;101994.84;5115372;28;20028;-48
2022/08/30 10:03:05;;;;;;;7.10;2.65;;;;;;;24.24;51.17;102011.59;5115319;28;20020;-49
2022/08/30 10:05:39;;;;;;;;;;;;;;;24.49;52.21;102006.06;5115753;28;20023;-46
2022/08/30 10:08:15;;;;;;;6.55;2.90;;;;;;;24.69;49.57;102012.91;5114919;28;19934;-48
2022/08/30 10:10:49;;;;;;;6.57;2.17;;;;;;;25.25;46.54;102008.72;5115687;28;20412;-47
2022/08/30 10:13:36;;;;;;;10.48;2.17;;;;;;;25.94;43.95;102008.66;5115331;28;20039;-47
2022/08/30 10:16:20;;;;;;;;;;;;;;;26.55;49.05;102006.72;5115312;28;20040;-47
2022/08/30 10:19:01;;;;;;;9.48;2.58;;;;;;;27.09;42.17;101995.06;5115274;28;19938;-44
2022/08/30 10:21:35;;;;;;;4.18;2.10;;;;;;;27.51;40.24;101998.59;5115193;28;20032;-45
2022/08/30 10:24:08;;;;;;;3.55;1.83;;;;;;;27.56;41.11;102010.81;5115306;28;20034;-48
2022/08/30 10:26:42;;;;;;;7.93;2.20;;;;;;;27.34;39.63;101996.31;5114752;28;20391;-48
2022/08/30 10:29:13;;;;;;;5.97;2.00;;;;;;;27.75;38.84;101997.16;5114587;28;20061;-49
2022/08/30 10:32:01;;;;;;;4.78;1.70;;;;;;;27.98;39.07;101993.94;5115030;28;20524;-44
2022/08/30 10:34:36;;;;;;;6.38;1.77;;;;;;;28.42;38.78;101999.00;5103624;28;20035;-48
2022/08/30 10:37:07;;;;;;;6.28;1.85;;;;;;;28.31;37.75;101990.47;5114447;28;20031;-49
2022/08/30 10:39:46;;;;;;;5.53;2.00;;;;;;;29.10;38.84;101999.75;5114614;28;20121;-49
2022/08/30 10:42:31;;;;;;;4.70;2.15;;;;;;;29.38;36.57;102007.75;5114831;28;20100;-48
2022/08/30 10:45:01;;;;;;;5.47;2.10;;;;;;;29.69;35.57;101993.50;5114199;28;20386;-49
2022/08/30 10:47:35;;;;;;;6.60;2.15;;;;;;;29.79;35.05;101975.47;5114599;28;20022;-45
2022/08/30 10:50:23;;;;;;;4.95;1.98;;;;;;;29.89;37.18;101992.88;5113741;28;20043;-46
2022/08/30 10:52:55;;;;;;;3.90;2.00;;;;;;;29.69;34.94;101995.31;5114762;28;20046;-49
2022/08/30 10:55:30;;;;;;;6.03;1.90;;;;;;;29.54;35.74;101986.91;5114577;28;20103;-49
2022/08/30 10:58:01;;;;;;;7.45;1.70;;;;;;;30.19;34.48;101984.75;5114123;28;20054;-49
2022/08/30 11:00:52;;;;;;;5.53;1.55;;;;;;;30.58;35.76;101985.22;5114347;28;20024;-48
2022/08/30 11:03:30;;;;;;;4.43;1.70;;;;;;;30.74;33.78;101989.03;5114354;28;20501;-49
2022/08/30 11:06:05;;;;;;;6.90;1.80;;;;;;;30.65;32.27;101986.72;5113799;28;20036;-49
2022/08/30 11:09:01;;;;;;;6.90;2.25;;;;;;;31.01;34.15;101989.78;5114011;28;20034;-43
2022/08/30 11:11:54;;;;;;;6.55;1.95;;;;;;;30.99;34.25;101985.47;5113860;28;20077;-44
2022/08/30 11:14:20;;;;;;;5.22;1.60;;;;;;;30.93;31.45;101985.69;5114431;28;20076;-50
2022/08/30 11:16:49;;;;;;;4.65;1.83;;;;;;;30.62;31.99;101982.38;5114354;28;20402;-47
2022/08/30 11:19:28;;;;;;;6.13;1.80;;;;;;;30.46;34.30;101976.72;5113606;28;20402;-50
2022/08/30 11:22:12;;;;;;;4.95;1.88;;;;;;;30.71;34.03;101975.84;5114338;28;20027;-46
2022/08/30 11:25:04;;;;;;;10.50;2.15;;;;;;;30.13;34.13;101987.63;5113979;28;20020;-48